createdAt,value
2023-08-01T00:02:18.379Z,3.5
2023-08-01T00:05:20.324Z,4.1
2023-08-01T00:08:22.295Z,4.5
2023-08-01T00:11:24.260Z,3.8
2023-08-01T00:14:26.242Z,3.8
2023-08-01T00:17:28.209Z,3.1
2023-08-01T00:20:30.175Z,3.9
2023-08-01T00:23:32.140Z,4.4
2023-08-01T00:26:34.137Z,4.6
2023-08-01T00:29:36.106Z,3.8
2023-08-01T00:32:38.097Z,4.2
2023-08-01T00:35:40.026Z,4
2023-08-01T00:38:42.002Z,4.6
2023-08-01T00:41:43.964Z,4
2023-08-01T00:44:45.916Z,4.6
2023-08-01T00:47:47.900Z,4.1
2023-08-01T00:50:49.821Z,4.1
2023-08-01T00:53:51.783Z,4
2023-08-01T00:56:53.760Z,5
2023-08-01T00:59:55.722Z,4.9
2023-08-01T01:02:57.722Z,4.4
2023-08-01T01:05:59.725Z,4.3
2023-08-01T01:09:01.706Z,4.5
2023-08-01T01:12:03.658Z,4.6
2023-08-01T01:15:05.610Z,4.4
2023-08-01T01:18:07.555Z,4.3
2023-08-01T01:21:09.533Z,3.8
2023-08-01T01:24:11.486Z,4.7
2023-08-01T01:27:13.458Z,4.9
2023-08-01T01:30:15.402Z,4.4
2023-08-01T01:33:17.382Z,4.1
2023-08-01T01:36:19.343Z,4.4
2023-08-01T01:39:21.313Z,4.4
2023-08-01T01:42:23.277Z,4.1
2023-08-01T01:45:25.247Z,3.9
2023-08-01T01:48:27.201Z,3.8
2023-08-01T01:51:29.163Z,4.5
2023-08-01T01:54:31.129Z,4.4
2023-08-01T01:57:33.088Z,4.1
2023-08-01T02:00:35.114Z,4.6
2023-08-01T02:03:37.011Z,4.3
2023-08-01T02:06:39.195Z,5.3
2023-08-01T02:09:40.928Z,5
2023-08-01T02:12:42.893Z,4.6
2023-08-01T02:15:44.865Z,5.1
2023-08-01T02:18:46.824Z,5.1
2023-08-01T02:21:48.809Z,4.8
2023-08-01T02:24:50.777Z,5.2
2023-08-01T02:27:52.784Z,5
2023-08-01T02:30:54.745Z,4.6
2023-08-01T02:33:56.704Z,5.3
2023-08-01T02:36:58.652Z,4.9
2023-08-01T02:40:00.628Z,4.9
2023-08-01T02:43:02.565Z,4.7
2023-08-01T02:46:04.562Z,4.9
2023-08-01T02:49:06.477Z,5.2
2023-08-01T02:52:08.441Z,5
2023-08-01T02:55:10.404Z,5.2
2023-08-01T02:58:12.363Z,4.5
2023-08-01T03:01:14.358Z,5
2023-08-01T03:04:16.311Z,5.4
2023-08-01T03:07:18.263Z,4.6
2023-08-01T03:10:30.706Z,4.6
2023-08-01T03:13:22.196Z,4.5
2023-08-01T03:16:24.194Z,4.7
2023-08-01T03:19:26.102Z,5
2023-08-01T03:22:28.057Z,4.9
2023-08-01T03:25:30.028Z,4.1
2023-08-01T03:28:32.000Z,4.7
2023-08-01T03:31:33.960Z,4.2
2023-08-01T03:34:35.937Z,4.5
2023-08-01T03:37:37.891Z,4
2023-08-01T03:40:39.834Z,3.8
2023-08-01T03:43:41.795Z,4
2023-08-01T03:46:43.749Z,4.1
2023-08-01T03:49:45.720Z,3.7
2023-08-01T03:52:47.687Z,4
2023-08-01T03:55:49.638Z,3.2
2023-08-01T03:58:51.588Z,4.3
2023-08-01T04:01:53.561Z,3.7
2023-08-01T04:04:55.525Z,3.8
2023-08-01T04:07:57.473Z,4
2023-08-01T04:10:59.432Z,3.6
2023-08-01T04:14:01.391Z,4
2023-08-01T04:17:03.360Z,3.6
2023-08-01T04:20:05.329Z,4.4
2023-08-01T04:23:07.283Z,4.1
2023-08-01T04:26:09.251Z,4.1
2023-08-01T04:29:11.215Z,4.5
2023-08-01T04:32:13.182Z,4.3
2023-08-01T04:35:15.149Z,3.9
2023-08-01T04:38:17.139Z,4.3
2023-08-01T04:41:19.061Z,3.8
2023-08-01T04:44:21.032Z,4.2
2023-08-01T04:47:23.062Z,4
2023-08-01T04:50:24.992Z,3.8
2023-08-01T04:53:26.962Z,3.8
2023-08-01T04:56:28.937Z,3.5
2023-08-01T04:59:30.919Z,3.8
2023-08-01T05:02:32.861Z,4.1
2023-08-01T05:05:34.820Z,3.6
2023-08-01T05:08:36.776Z,3.8
2023-08-01T05:11:38.730Z,3.3
2023-08-01T05:14:40.692Z,3.1
2023-08-01T05:17:42.763Z,3
2023-08-01T05:20:44.624Z,3.5
2023-08-01T05:23:46.591Z,3.2
2023-08-01T05:26:48.554Z,3.3
2023-08-01T05:29:50.516Z,3.5
2023-08-01T05:32:52.491Z,3.3
2023-08-01T05:35:54.424Z,3.5
2023-08-01T05:38:56.391Z,3.5
2023-08-01T05:41:58.333Z,3.1
2023-08-01T05:45:00.285Z,2.8
2023-08-01T05:48:02.273Z,2.9
2023-08-01T05:51:04.210Z,3.1
2023-08-01T05:54:06.157Z,2.9
2023-08-01T05:57:08.111Z,3.1
2023-08-01T06:00:10.079Z,3.6
2023-08-01T06:03:12.147Z,3.2
2023-08-01T06:06:14.010Z,2.4
2023-08-01T06:09:15.994Z,3
2023-08-01T06:12:24.040Z,2.8
2023-08-01T06:15:25.862Z,2.7
2023-08-01T06:18:27.928Z,3
2023-08-01T06:21:33.001Z,2.6
2023-08-01T06:24:34.951Z,2.8
2023-08-01T06:27:36.992Z,2.9
2023-08-01T06:30:38.936Z,3
2023-08-01T06:33:40.939Z,3.8
2023-08-01T06:36:42.894Z,4.2
2023-08-01T06:39:44.789Z,3.5
2023-08-01T06:42:46.743Z,2.7
2023-08-01T06:45:48.690Z,2.2
2023-08-01T06:48:50.642Z,1.7
2023-08-01T06:51:52.635Z,1.5
2023-08-01T06:54:54.584Z,1.1
2023-08-01T06:57:56.557Z,0.9
2023-08-01T07:00:58.494Z,0.8
2023-08-01T07:04:00.452Z,0.9
2023-08-01T07:07:05.516Z,0.7
2023-08-01T07:10:07.476Z,0.8
2023-08-01T07:13:09.440Z,0.8
2023-08-01T07:16:11.484Z,0.8
2023-08-01T07:19:13.385Z,0.7
2023-08-01T07:22:15.316Z,0.9
2023-08-01T07:25:17.313Z,0.8
2023-08-01T07:28:22.328Z,0.7
2023-08-01T07:31:24.320Z,0.9
2023-08-01T07:34:26.237Z,1.1
2023-08-01T07:37:28.172Z,1
2023-08-01T07:40:30.138Z,1.5
2023-08-01T07:43:32.094Z,1.2
2023-08-01T07:46:34.074Z,1.2
2023-08-01T07:49:36.019Z,1.1
2023-08-01T07:52:38.006Z,1
2023-08-01T07:55:39.929Z,1.4
2023-08-01T07:58:41.961Z,1.3
2023-08-01T08:01:43.899Z,1.1
2023-08-01T08:04:45.850Z,1
2023-08-01T08:07:47.813Z,1.6
2023-08-01T08:10:49.765Z,1.1
2023-08-01T08:13:51.792Z,1
2023-08-01T08:16:53.813Z,1.1
2023-08-01T08:19:55.690Z,1.1
2023-08-01T08:22:57.680Z,1.1
2023-08-01T08:25:59.606Z,1.3
2023-08-01T08:29:01.585Z,1.2
2023-08-01T08:32:03.540Z,1.4
2023-08-01T08:35:05.506Z,1.2
2023-08-01T08:38:07.461Z,1.3
2023-08-01T08:41:09.408Z,1.2
2023-08-01T08:44:11.401Z,1.1
2023-08-01T08:47:13.390Z,1.3
2023-08-01T08:50:15.369Z,1
2023-08-01T08:53:17.341Z,1.2
2023-08-01T08:56:19.338Z,1.1
2023-08-01T08:59:21.338Z,1.1
2023-08-01T09:02:23.352Z,1.1
2023-08-01T09:05:25.360Z,1.2
2023-08-01T09:08:27.271Z,1.3
2023-08-01T09:11:29.302Z,1.3
2023-08-01T09:14:31.260Z,1.3
2023-08-01T09:17:33.226Z,1.2
2023-08-01T09:20:36.686Z,1.3
2023-08-01T09:23:37.159Z,1.2
2023-08-01T09:26:39.435Z,1.2
2023-08-01T09:29:41.087Z,1.2
2023-08-01T09:32:43.076Z,1.2
2023-08-01T09:35:45.042Z,1.1
2023-08-01T09:38:46.990Z,1
2023-08-01T09:41:48.969Z,0.9
2023-08-01T09:44:50.917Z,1
2023-08-01T09:47:52.876Z,1
2023-08-01T09:50:54.829Z,1.1
2023-08-01T09:53:56.818Z,1.1
2023-08-01T09:56:58.761Z,1.1
2023-08-01T10:00:00.856Z,1
2023-08-01T10:03:02.836Z,1.1
2023-08-01T10:06:04.667Z,0.8
2023-08-01T10:09:06.653Z,1.3
2023-08-01T10:12:08.672Z,1.3
2023-08-01T10:15:12.096Z,1.1
2023-08-01T10:18:12.622Z,1
2023-08-01T10:21:14.604Z,1.1
2023-08-01T10:24:16.546Z,1.1
2023-08-01T10:27:18.514Z,1.3
2023-08-01T10:30:20.486Z,1.2
2023-08-01T10:33:22.446Z,1.2
2023-08-01T10:36:24.414Z,0.9
2023-08-01T10:39:26.369Z,1
2023-08-01T10:42:28.384Z,1.1
2023-08-01T10:45:30.824Z,0.9
2023-08-01T10:48:32.313Z,1
2023-08-01T10:51:34.319Z,1.2
2023-08-01T10:54:36.236Z,1
2023-08-01T10:57:38.210Z,1.1
2023-08-01T11:00:40.173Z,1.1
2023-08-01T11:03:42.230Z,1.2
2023-08-01T11:06:44.299Z,1.1
2023-08-01T11:09:46.042Z,1.1
2023-08-01T11:12:48.016Z,1.1
2023-08-01T11:15:50.000Z,1.2
2023-08-01T11:18:51.936Z,1.1
2023-08-01T11:21:53.951Z,1.5
2023-08-01T11:24:55.915Z,1
2023-08-01T11:27:57.903Z,1
2023-08-01T11:30:59.844Z,1.2
2023-08-01T11:34:01.807Z,0.9
2023-08-01T11:37:03.806Z,0.9
2023-08-01T11:40:05.776Z,1
2023-08-01T11:43:07.725Z,0.9
2023-08-01T11:46:09.810Z,1.1
2023-08-01T11:49:11.692Z,1.1
2023-08-01T11:52:13.653Z,0.8
2023-08-01T11:55:15.596Z,0.9
2023-08-01T11:58:17.563Z,0.9
2023-08-01T12:01:19.586Z,0.9
2023-08-01T12:04:21.492Z,1.1
2023-08-01T12:07:23.452Z,1
2023-08-01T12:10:25.429Z,1
2023-08-01T12:13:27.420Z,1
2023-08-01T12:16:29.364Z,1.1
2023-08-01T12:19:31.399Z,1.2
2023-08-01T12:22:33.367Z,1.4
2023-08-01T12:25:35.393Z,1.3
2023-08-01T12:28:37.387Z,1.5
2023-08-01T12:31:39.383Z,1
2023-08-01T12:34:41.320Z,1.1
2023-08-01T12:37:43.291Z,1.3
2023-08-01T12:40:45.377Z,1.1
2023-08-01T12:43:47.360Z,1.5
2023-08-01T12:46:49.359Z,1.6
2023-08-01T12:49:51.269Z,1.9
2023-08-01T12:52:53.255Z,1.2
2023-08-01T12:55:55.206Z,1.2
2023-08-01T12:58:57.153Z,1.3
2023-08-01T13:01:59.185Z,1.1
2023-08-01T13:05:01.072Z,1.4
2023-08-01T13:08:03.048Z,0.9
2023-08-01T13:11:05.077Z,0.6
2023-08-01T13:14:07.041Z,0.7
2023-08-01T13:17:09.011Z,1.1
2023-08-01T13:20:24.101Z,0.9
2023-08-01T13:23:16.057Z,0.9
2023-08-01T13:26:17.999Z,1
2023-08-01T13:29:19.943Z,1.1
2023-08-01T13:32:21.926Z,1.1
2023-08-01T13:35:23.846Z,1.1
2023-08-01T13:38:25.790Z,0.8
2023-08-01T13:41:27.740Z,1.1
2023-08-01T13:44:29.709Z,1.4
2023-08-01T13:47:31.729Z,1.2
2023-08-01T13:50:33.620Z,1.7
2023-08-01T13:53:35.565Z,2.5
2023-08-01T13:56:39.578Z,1.8
2023-08-01T13:59:39.518Z,1.6
2023-08-01T14:02:41.494Z,2.1
2023-08-01T14:05:43.375Z,1.6
2023-08-01T14:08:45.350Z,1.5
2023-08-01T14:11:47.290Z,1.6
2023-08-01T14:14:49.244Z,2.4
2023-08-01T14:17:51.217Z,1.6
2023-08-01T14:20:53.152Z,1.6
2023-08-01T14:23:55.106Z,1.6
2023-08-01T14:26:57.052Z,1.6
2023-08-01T14:29:58.992Z,1.3
2023-08-01T14:33:00.992Z,1.1
2023-08-01T14:36:02.888Z,1.4
2023-08-01T14:39:13.072Z,1.4
2023-08-01T14:42:06.807Z,1.2
2023-08-01T14:45:08.734Z,1.3
2023-08-01T14:48:10.705Z,1.4
2023-08-01T14:51:12.651Z,1.3
2023-08-01T14:54:17.600Z,1.6
2023-08-01T14:57:16.550Z,1.2
2023-08-01T15:00:18.507Z,1.5
2023-08-01T15:03:20.451Z,1.5
2023-08-01T15:06:22.492Z,1.3
2023-08-01T15:09:24.350Z,1.1
2023-08-01T15:12:26.295Z,1.1
2023-08-01T15:15:28.247Z,1.1
2023-08-01T15:18:30.203Z,1
2023-08-01T15:21:32.155Z,5.8
2023-08-01T15:24:34.098Z,2
2023-08-01T15:27:36.066Z,1.2
2023-08-01T15:30:38.022Z,0.8
2023-08-01T15:33:39.970Z,0.9
2023-08-01T15:36:42.124Z,0.9
2023-08-01T15:39:43.932Z,1
2023-08-01T15:42:45.884Z,1.1
2023-08-01T15:45:47.938Z,1.2
2023-08-01T15:48:49.872Z,0.9
2023-08-01T15:51:51.810Z,4
2023-08-01T15:54:53.770Z,2.3
2023-08-01T15:57:55.729Z,1.3
2023-08-01T16:00:57.710Z,1.5
2023-08-01T16:03:59.606Z,1.6
2023-08-01T16:07:01.740Z,1.7
2023-08-01T16:10:03.547Z,1.2
2023-08-01T16:13:05.479Z,1.7
2023-08-01T16:16:07.514Z,1.1
2023-08-01T16:19:09.382Z,1.1
2023-08-01T16:22:11.354Z,0.9
2023-08-01T16:25:13.269Z,1
2023-08-01T16:28:15.236Z,1
2023-08-01T16:31:17.168Z,1.2
2023-08-01T16:34:19.206Z,1
2023-08-01T16:37:21.082Z,0.9
2023-08-01T16:40:25.518Z,1.1
2023-08-01T16:43:25.117Z,0.8
2023-08-01T16:46:27.027Z,0.8
2023-08-01T16:49:28.960Z,0.7
2023-08-01T16:52:31.114Z,0.9
2023-08-01T16:55:32.841Z,0.8
2023-08-01T16:58:34.797Z,1
2023-08-01T17:01:36.740Z,0.8
2023-08-01T17:04:38.700Z,0.7
2023-08-01T17:07:40.644Z,1
2023-08-01T17:10:42.591Z,1.2
2023-08-01T17:13:44.560Z,0.9
2023-08-01T17:16:46.538Z,1.1
2023-08-01T17:19:48.463Z,1
2023-08-01T17:22:50.428Z,1
2023-08-01T17:25:52.395Z,1.1
2023-08-01T17:28:54.338Z,1
2023-08-01T17:31:56.298Z,1.1
2023-08-01T17:34:58.276Z,0.9
2023-08-01T17:38:00.197Z,1.2
2023-08-01T17:41:02.136Z,1.2
2023-08-01T17:44:04.098Z,0.8
2023-08-01T17:47:06.076Z,1
2023-08-01T17:50:08.016Z,1
2023-08-01T17:53:09.976Z,0.9
2023-08-01T17:56:11.926Z,0.9
2023-08-01T17:59:13.865Z,1
2023-08-01T18:02:15.869Z,1.2
2023-08-01T18:05:17.783Z,0.8
2023-08-01T18:08:19.750Z,1
2023-08-01T18:11:21.709Z,0.9
2023-08-01T18:14:23.663Z,1
2023-08-01T18:17:25.638Z,1.1
2023-08-01T18:20:27.578Z,1
2023-08-01T18:23:29.604Z,1
2023-08-01T18:26:31.485Z,1.1
2023-08-01T18:29:33.453Z,1
2023-08-01T18:32:35.413Z,1.3
2023-08-01T18:35:37.372Z,0.9
2023-08-01T18:38:39.343Z,1.4
2023-08-01T18:41:41.284Z,1.2
2023-08-01T18:44:43.259Z,1.1
2023-08-01T18:47:45.280Z,0.9
2023-08-01T18:50:47.160Z,0.9
2023-08-01T18:53:49.135Z,1.2
2023-08-01T18:56:51.070Z,1.1
2023-08-01T18:59:53.017Z,1
2023-08-01T19:02:54.973Z,0.8
2023-08-01T19:05:56.943Z,1.1
2023-08-01T19:09:14.352Z,1
2023-08-01T19:12:00.841Z,1
2023-08-01T19:15:02.809Z,0.9
2023-08-01T19:18:04.778Z,1.1
2023-08-01T19:21:06.716Z,0.9
2023-08-01T19:24:08.655Z,1
2023-08-01T19:27:10.614Z,0.9
2023-08-01T19:30:12.550Z,1.3
2023-08-01T19:33:14.492Z,1.2
2023-08-01T19:36:16.447Z,1.1
2023-08-01T19:39:18.415Z,1.2
2023-08-01T19:42:20.355Z,1
2023-08-01T19:45:22.362Z,1.1
2023-08-01T19:48:24.312Z,1.3
2023-08-01T19:51:26.240Z,0.7
2023-08-01T19:54:28.195Z,1
2023-08-01T19:57:30.144Z,1.1
2023-08-01T20:00:32.129Z,1.2
2023-08-01T20:03:34.110Z,1
2023-08-01T20:06:36.125Z,1
2023-08-01T20:09:37.992Z,0.9
2023-08-01T20:12:39.931Z,1.2
2023-08-01T20:15:41.936Z,1.5
2023-08-01T20:18:43.834Z,1.1
2023-08-01T20:21:45.826Z,0.9
2023-08-01T20:24:47.775Z,1
2023-08-01T20:27:49.736Z,1.2
2023-08-01T20:30:51.691Z,0.8
2023-08-01T20:33:53.660Z,1
2023-08-01T20:36:55.632Z,1
2023-08-01T20:39:57.618Z,1.3
2023-08-01T20:42:59.568Z,1.2
2023-08-01T20:46:01.668Z,1.1
2023-08-01T20:49:03.491Z,1.4
2023-08-01T20:52:05.471Z,1.5
2023-08-01T20:55:07.412Z,1.3
2023-08-01T20:58:09.362Z,1.8
2023-08-01T21:01:11.361Z,1.4
2023-08-01T21:04:13.324Z,1.2
2023-08-01T21:07:16.645Z,1.7
2023-08-01T21:10:17.205Z,1.3
2023-08-01T21:13:19.155Z,1.4
2023-08-01T21:16:21.168Z,1.4
2023-08-01T21:19:23.157Z,1.3
2023-08-01T21:22:25.035Z,1.5
2023-08-01T21:25:26.993Z,1.9
2023-08-01T21:28:28.961Z,1.3
2023-08-01T21:31:30.987Z,1.8
2023-08-01T21:34:32.854Z,1.2
2023-08-01T21:37:34.825Z,1.5
2023-08-01T21:40:36.766Z,1.4
2023-08-01T21:43:38.740Z,1.3
2023-08-01T21:46:40.911Z,1.7
2023-08-01T21:49:42.634Z,1.4
2023-08-01T21:52:44.611Z,1.5
2023-08-01T21:55:46.558Z,1.4
2023-08-01T21:58:48.525Z,1.7
2023-08-01T22:01:50.481Z,1.6
2023-08-01T22:04:52.440Z,1.6
2023-08-01T22:07:54.395Z,1.7
2023-08-01T22:10:56.366Z,1.8
2023-08-01T22:13:58.300Z,1.4
2023-08-01T22:17:00.267Z,1.8
2023-08-01T22:20:02.239Z,1.6
2023-08-01T22:23:04.171Z,1.7
2023-08-01T22:26:06.126Z,1.6
2023-08-01T22:29:08.181Z,2
2023-08-01T22:32:10.049Z,1.6
2023-08-01T22:35:11.993Z,1.6
2023-08-01T22:38:13.953Z,1.9
2023-08-01T22:41:15.916Z,1.9
2023-08-01T22:44:17.870Z,1.6
2023-08-01T22:47:19.885Z,2.3
2023-08-01T22:50:21.798Z,1.9
2023-08-01T22:53:23.757Z,1.8
2023-08-01T22:56:25.720Z,1.7
2023-08-01T22:59:27.671Z,1.8
2023-08-01T23:02:29.702Z,1.5
2023-08-01T23:05:31.569Z,1.6
2023-08-01T23:08:33.526Z,1.8
2023-08-01T23:11:35.472Z,2.2
2023-08-01T23:14:37.416Z,2
2023-08-01T23:17:39.380Z,1.6
2023-08-01T23:20:41.324Z,1.6
2023-08-01T23:23:43.286Z,2
2023-08-01T23:26:45.298Z,2
2023-08-01T23:29:47.190Z,1.8
2023-08-01T23:32:49.162Z,2.2
2023-08-01T23:35:51.087Z,1.8
2023-08-01T23:38:53.037Z,1.8
2023-08-01T23:41:54.988Z,1.8
2023-08-01T23:44:56.948Z,1.8
2023-08-01T23:47:58.921Z,1.8
2023-08-01T23:51:00.856Z,1.8
2023-08-01T23:54:02.864Z,1.8
2023-08-01T23:57:04.748Z,1.9
